sensor_id;sensor_type;location;lat;lon;timestamp;P1;durP1;ratioP1;P2;durP2;ratioP2
63120;SDS011;54478;48.684;20.114;2024-01-30T00:00:15;21.23;;;11.00;;
63120;SDS011;54478;48.684;20.114;2024-01-30T00:02:43;45.50;;;40.83;;
63120;SDS011;54478;48.684;20.114;2024-01-30T00:05:13;51.42;;;45.78;;
63120;SDS011;54478;48.684;20.114;2024-01-30T00:07:41;47.85;;;44.13;;
63120;SDS011;54478;48.684;20.114;2024-01-30T00:10:09;61.50;;;56.47;;
63120;SDS011;54478;48.684;20.114;2024-01-30T00:12:37;74.00;;;67.47;;
63120;SDS011;54478;48.684;20.114;2024-01-30T00:15:05;45.38;;;34.25;;
63120;SDS011;54478;48.684;20.114;2024-01-30T00:17:36;23.58;;;12.55;;
63120;SDS011;54478;48.684;20.114;2024-01-30T00:20:05;14.40;;;7.95;;
63120;SDS011;54478;48.684;20.114;2024-01-30T00:22:33;17.80;;;8.65;;
63120;SDS011;54478;48.684;20.114;2024-01-30T00:25:01;24.73;;;9.90;;
63120;SDS011;54478;48.684;20.114;2024-01-30T00:27:26;18.38;;;10.55;;
63120;SDS011;54478;48.684;20.114;2024-01-30T00:29:55;25.95;;;11.15;;
63120;SDS011;54478;48.684;20.114;2024-01-30T00:32:23;22.58;;;10.18;;
63120;SDS011;54478;48.684;20.114;2024-01-30T00:34:51;20.77;;;9.20;;
63120;SDS011;54478;48.684;20.114;2024-01-30T00:37:19;13.68;;;8.57;;
63120;SDS011;54478;48.684;20.114;2024-01-30T00:39:47;19.55;;;7.53;;
63120;SDS011;54478;48.684;20.114;2024-01-30T00:42:15;24.00;;;8.15;;
63120;SDS011;54478;48.684;20.114;2024-01-30T00:44:43;26.80;;;10.95;;
63120;SDS011;54478;48.684;20.114;2024-01-30T00:47:11;31.08;;;25.30;;
63120;SDS011;54478;48.684;20.114;2024-01-30T00:49:39;39.58;;;35.58;;
63120;SDS011;54478;48.684;20.114;2024-01-30T00:52:07;44.65;;;40.72;;
63120;SDS011;54478;48.684;20.114;2024-01-30T00:54:35;56.63;;;50.78;;
63120;SDS011;54478;48.684;20.114;2024-01-30T00:57:04;64.13;;;58.50;;
63120;SDS011;54478;48.684;20.114;2024-01-30T00:59:32;21.33;;;16.38;;
63120;SDS011;54478;48.684;20.114;2024-01-30T01:02:00;16.85;;;7.18;;
63120;SDS011;54478;48.684;20.114;2024-01-30T01:04:28;18.13;;;7.65;;
63120;SDS011;54478;48.684;20.114;2024-01-30T01:06:56;13.65;;;5.82;;
63120;SDS011;54478;48.684;20.114;2024-01-30T01:09:24;17.17;;;7.03;;
63120;SDS011;54478;48.684;20.114;2024-01-30T01:11:52;16.83;;;6.30;;
63120;SDS011;54478;48.684;20.114;2024-01-30T01:14:20;17.80;;;6.85;;
63120;SDS011;54478;48.684;20.114;2024-01-30T01:16:48;23.00;;;6.63;;
63120;SDS011;54478;48.684;20.114;2024-01-30T01:19:16;18.00;;;8.20;;
63120;SDS011;54478;48.684;20.114;2024-01-30T01:21:44;19.48;;;8.13;;
63120;SDS011;54478;48.684;20.114;2024-01-30T01:24:12;16.20;;;7.80;;
63120;SDS011;54478;48.684;20.114;2024-01-30T01:26:38;15.10;;;8.38;;
63120;SDS011;54478;48.684;20.114;2024-01-30T01:29:06;17.88;;;9.10;;
63120;SDS011;54478;48.684;20.114;2024-01-30T01:31:37;22.73;;;9.52;;
63120;SDS011;54478;48.684;20.114;2024-01-30T01:34:11;12.55;;;6.38;;
63120;SDS011;54478;48.684;20.114;2024-01-30T01:36:39;13.82;;;7.30;;
63120;SDS011;54478;48.684;20.114;2024-01-30T01:39:07;11.00;;;5.95;;
63120;SDS011;54478;48.684;20.114;2024-01-30T01:41:36;27.88;;;10.02;;
63120;SDS011;54478;48.684;20.114;2024-01-30T01:44:04;13.70;;;7.10;;
63120;SDS011;54478;48.684;20.114;2024-01-30T01:46:33;21.73;;;8.55;;
63120;SDS011;54478;48.684;20.114;2024-01-30T01:49:04;13.45;;;6.63;;
63120;SDS011;54478;48.684;20.114;2024-01-30T01:51:34;16.70;;;11.55;;
63120;SDS011;54478;48.684;20.114;2024-01-30T01:54:04;9.70;;;4.95;;
63120;SDS011;54478;48.684;20.114;2024-01-30T01:56:33;26.48;;;10.85;;
63120;SDS011;54478;48.684;20.114;2024-01-30T01:59:05;38.85;;;35.88;;
63120;SDS011;54478;48.684;20.114;2024-01-30T02:01:34;46.72;;;42.85;;
63120;SDS011;54478;48.684;20.114;2024-01-30T02:04:04;57.22;;;52.85;;
63120;SDS011;54478;48.684;20.114;2024-01-30T02:06:32;54.63;;;50.50;;
63120;SDS011;54478;48.684;20.114;2024-01-30T02:09:01;70.55;;;65.18;;
63120;SDS011;54478;48.684;20.114;2024-01-30T02:11:29;54.33;;;50.30;;
63120;SDS011;54478;48.684;20.114;2024-01-30T02:14:01;78.80;;;72.65;;
63120;SDS011;54478;48.684;20.114;2024-01-30T02:18:58;79.05;;;73.95;;
63120;SDS011;54478;48.684;20.114;2024-01-30T02:21:26;89.88;;;83.53;;
63120;SDS011;54478;48.684;20.114;2024-01-30T02:23:54;90.20;;;83.53;;
63120;SDS011;54478;48.684;20.114;2024-01-30T02:26:22;87.47;;;79.90;;
63120;SDS011;54478;48.684;20.114;2024-01-30T02:28:50;82.50;;;75.68;;
63120;SDS011;54478;48.684;20.114;2024-01-30T02:31:18;78.90;;;73.60;;
63120;SDS011;54478;48.684;20.114;2024-01-30T02:33:46;78.20;;;72.35;;
63120;SDS011;54478;48.684;20.114;2024-01-30T02:36:14;73.25;;;68.15;;
63120;SDS011;54478;48.684;20.114;2024-01-30T02:38:43;72.65;;;67.63;;
63120;SDS011;54478;48.684;20.114;2024-01-30T02:41:11;76.22;;;71.03;;
63120;SDS011;54478;48.684;20.114;2024-01-30T02:43:39;73.93;;;68.78;;
63120;SDS011;54478;48.684;20.114;2024-01-30T02:46:07;76.10;;;70.90;;
63120;SDS011;54478;48.684;20.114;2024-01-30T02:48:35;77.60;;;72.07;;
63120;SDS011;54478;48.684;20.114;2024-01-30T02:51:03;76.20;;;71.07;;
63120;SDS011;54478;48.684;20.114;2024-01-30T02:53:31;77.63;;;72.43;;
63120;SDS011;54478;48.684;20.114;2024-01-30T02:55:59;76.65;;;71.15;;
63120;SDS011;54478;48.684;20.114;2024-01-30T02:58:28;78.00;;;72.32;;
63120;SDS011;54478;48.684;20.114;2024-01-30T03:00:55;77.75;;;72.13;;
63120;SDS011;54478;48.684;20.114;2024-01-30T03:03:24;75.00;;;69.63;;
63120;SDS011;54478;48.684;20.114;2024-01-30T03:05:52;75.65;;;69.72;;
63120;SDS011;54478;48.684;20.114;2024-01-30T03:08:20;80.05;;;74.63;;
63120;SDS011;54478;48.684;20.114;2024-01-30T03:10:48;79.72;;;73.93;;
63120;SDS011;54478;48.684;20.114;2024-01-30T03:13:16;82.22;;;75.55;;
63120;SDS011;54478;48.684;20.114;2024-01-30T03:15:44;77.57;;;71.40;;
63120;SDS011;54478;48.684;20.114;2024-01-30T03:18:13;77.95;;;71.47;;
63120;SDS011;54478;48.684;20.114;2024-01-30T03:20:41;77.22;;;71.93;;
63120;SDS011;54478;48.684;20.114;2024-01-30T03:23:09;76.60;;;71.28;;
63120;SDS011;54478;48.684;20.114;2024-01-30T03:25:37;78.28;;;72.93;;
63120;SDS011;54478;48.684;20.114;2024-01-30T03:28:02;76.93;;;71.32;;
63120;SDS011;54478;48.684;20.114;2024-01-30T03:30:30;77.18;;;71.55;;
63120;SDS011;54478;48.684;20.114;2024-01-30T03:32:58;77.55;;;72.28;;
63120;SDS011;54478;48.684;20.114;2024-01-30T03:35:26;78.82;;;72.93;;
63120;SDS011;54478;48.684;20.114;2024-01-30T03:37:54;68.00;;;63.28;;
63120;SDS011;54478;48.684;20.114;2024-01-30T03:40:22;68.50;;;63.58;;
63120;SDS011;54478;48.684;20.114;2024-01-30T03:42:50;74.47;;;69.13;;
63120;SDS011;54478;48.684;20.114;2024-01-30T03:45:18;78.00;;;72.53;;
63120;SDS011;54478;48.684;20.114;2024-01-30T03:47:47;81.47;;;76.35;;
63120;SDS011;54478;48.684;20.114;2024-01-30T03:50:15;65.70;;;60.90;;
63120;SDS011;54478;48.684;20.114;2024-01-30T03:52:43;74.60;;;69.70;;
63120;SDS011;54478;48.684;20.114;2024-01-30T03:55:11;36.60;;;33.85;;
63120;SDS011;54478;48.684;20.114;2024-01-30T03:57:39;20.58;;;18.65;;
63120;SDS011;54478;48.684;20.114;2024-01-30T04:00:08;12.15;;;8.68;;
63120;SDS011;54478;48.684;20.114;2024-01-30T04:02:36;18.90;;;17.38;;
63120;SDS011;54478;48.684;20.114;2024-01-30T04:05:04;30.00;;;18.65;;
63120;SDS011;54478;48.684;20.114;2024-01-30T04:07:32;14.18;;;11.93;;
63120;SDS011;54478;48.684;20.114;2024-01-30T04:10:01;29.90;;;27.35;;
63120;SDS011;54478;48.684;20.114;2024-01-30T04:12:29;42.08;;;39.10;;
63120;SDS011;54478;48.684;20.114;2024-01-30T04:14:57;44.72;;;41.33;;
63120;SDS011;54478;48.684;20.114;2024-01-30T04:17:24;43.78;;;40.35;;
63120;SDS011;54478;48.684;20.114;2024-01-30T04:19:52;49.42;;;45.72;;
63120;SDS011;54478;48.684;20.114;2024-01-30T04:22:20;48.83;;;44.92;;
63120;SDS011;54478;48.684;20.114;2024-01-30T04:24:48;56.67;;;52.70;;
63120;SDS011;54478;48.684;20.114;2024-01-30T04:27:14;62.53;;;57.85;;
63120;SDS011;54478;48.684;20.114;2024-01-30T04:29:42;63.42;;;59.05;;
63120;SDS011;54478;48.684;20.114;2024-01-30T04:32:10;59.53;;;55.55;;
63120;SDS011;54478;48.684;20.114;2024-01-30T04:34:38;72.55;;;67.18;;
63120;SDS011;54478;48.684;20.114;2024-01-30T04:37:06;70.47;;;65.40;;
63120;SDS011;54478;48.684;20.114;2024-01-30T04:39:34;71.55;;;66.57;;
63120;SDS011;54478;48.684;20.114;2024-01-30T04:42:02;73.10;;;68.15;;
63120;SDS011;54478;48.684;20.114;2024-01-30T04:44:30;70.57;;;65.65;;
63120;SDS011;54478;48.684;20.114;2024-01-30T04:46:58;79.97;;;74.55;;
63120;SDS011;54478;48.684;20.114;2024-01-30T04:49:29;89.68;;;84.00;;
63120;SDS011;54478;48.684;20.114;2024-01-30T04:51:57;85.13;;;78.85;;
63120;SDS011;54478;48.684;20.114;2024-01-30T04:54:25;89.60;;;83.35;;
63120;SDS011;54478;48.684;20.114;2024-01-30T04:56:53;72.05;;;67.05;;
63120;SDS011;54478;48.684;20.114;2024-01-30T04:59:22;76.93;;;71.10;;
63120;SDS011;54478;48.684;20.114;2024-01-30T05:01:50;86.97;;;80.03;;
63120;SDS011;54478;48.684;20.114;2024-01-30T05:04:18;95.97;;;88.43;;
63120;SDS011;54478;48.684;20.114;2024-01-30T05:06:46;97.60;;;90.63;;
63120;SDS011;54478;48.684;20.114;2024-01-30T05:09:14;109.10;;;101.90;;
63120;SDS011;54478;48.684;20.114;2024-01-30T05:11:42;107.00;;;100.28;;
63120;SDS011;54478;48.684;20.114;2024-01-30T05:14:10;114.15;;;107.10;;
63120;SDS011;54478;48.684;20.114;2024-01-30T05:16:39;108.75;;;101.95;;
63120;SDS011;54478;48.684;20.114;2024-01-30T05:19:07;112.28;;;105.25;;
63120;SDS011;54478;48.684;20.114;2024-01-30T05:21:35;115.32;;;107.70;;
63120;SDS011;54478;48.684;20.114;2024-01-30T05:24:03;113.65;;;106.57;;
63120;SDS011;54478;48.684;20.114;2024-01-30T05:26:28;120.53;;;112.95;;
63120;SDS011;54478;48.684;20.114;2024-01-30T05:28:57;122.40;;;115.03;;
63120;SDS011;54478;48.684;20.114;2024-01-30T05:31:25;128.13;;;120.13;;
63120;SDS011;54478;48.684;20.114;2024-01-30T05:33:55;130.50;;;121.93;;
63120;SDS011;54478;48.684;20.114;2024-01-30T05:36:23;131.68;;;123.75;;
63120;SDS011;54478;48.684;20.114;2024-01-30T05:38:51;132.75;;;123.95;;
63120;SDS011;54478;48.684;20.114;2024-01-30T05:41:19;136.73;;;128.50;;
63120;SDS011;54478;48.684;20.114;2024-01-30T05:43:48;141.38;;;132.45;;
63120;SDS011;54478;48.684;20.114;2024-01-30T05:46:16;144.30;;;135.57;;
63120;SDS011;54478;48.684;20.114;2024-01-30T05:48:45;142.10;;;132.60;;
63120;SDS011;54478;48.684;20.114;2024-01-30T05:51:13;141.85;;;131.68;;
63120;SDS011;54478;48.684;20.114;2024-01-30T05:53:41;148.00;;;138.05;;
63120;SDS011;54478;48.684;20.114;2024-01-30T05:56:09;150.02;;;140.95;;
63120;SDS011;54478;48.684;20.114;2024-01-30T05:58:37;150.73;;;140.98;;
63120;SDS011;54478;48.684;20.114;2024-01-30T06:01:08;148.68;;;139.68;;
63120;SDS011;54478;48.684;20.114;2024-01-30T06:03:37;146.03;;;135.43;;
63120;SDS011;54478;48.684;20.114;2024-01-30T06:06:05;148.70;;;139.55;;
63120;SDS011;54478;48.684;20.114;2024-01-30T06:08:33;153.60;;;143.85;;
63120;SDS011;54478;48.684;20.114;2024-01-30T06:11:01;155.80;;;146.00;;
63120;SDS011;54478;48.684;20.114;2024-01-30T06:13:29;155.65;;;146.10;;
63120;SDS011;54478;48.684;20.114;2024-01-30T06:15:59;146.90;;;136.27;;
63120;SDS011;54478;48.684;20.114;2024-01-30T06:18:27;149.43;;;139.18;;
63120;SDS011;54478;48.684;20.114;2024-01-30T06:20:57;149.57;;;140.20;;
63120;SDS011;54478;48.684;20.114;2024-01-30T06:23:25;155.70;;;145.50;;
63120;SDS011;54478;48.684;20.114;2024-01-30T06:25:53;151.02;;;140.82;;
63120;SDS011;54478;48.684;20.114;2024-01-30T06:28:18;149.65;;;140.23;;
63120;SDS011;54478;48.684;20.114;2024-01-30T06:30:46;146.85;;;136.55;;
63120;SDS011;54478;48.684;20.114;2024-01-30T06:33:14;152.98;;;143.00;;
63120;SDS011;54478;48.684;20.114;2024-01-30T06:35:43;151.27;;;140.38;;
63120;SDS011;54478;48.684;20.114;2024-01-30T06:38:13;152.77;;;142.35;;
63120;SDS011;54478;48.684;20.114;2024-01-30T06:40:43;158.32;;;147.57;;
63120;SDS011;54478;48.684;20.114;2024-01-30T06:43:11;160.57;;;149.32;;
63120;SDS011;54478;48.684;20.114;2024-01-30T06:45:39;157.10;;;145.18;;
63120;SDS011;54478;48.684;20.114;2024-01-30T06:48:08;153.63;;;143.20;;
63120;SDS011;54478;48.684;20.114;2024-01-30T06:50:36;153.90;;;144.15;;
63120;SDS011;54478;48.684;20.114;2024-01-30T06:53:04;165.57;;;153.30;;
63120;SDS011;54478;48.684;20.114;2024-01-30T06:55:32;167.48;;;155.05;;
63120;SDS011;54478;48.684;20.114;2024-01-30T06:58:00;163.35;;;151.52;;
63120;SDS011;54478;48.684;20.114;2024-01-30T07:00:28;168.65;;;155.25;;
63120;SDS011;54478;48.684;20.114;2024-01-30T07:02:56;164.18;;;151.88;;
63120;SDS011;54478;48.684;20.114;2024-01-30T07:05:24;170.98;;;156.27;;
63120;SDS011;54478;48.684;20.114;2024-01-30T07:07:52;161.07;;;150.70;;
63120;SDS011;54478;48.684;20.114;2024-01-30T07:10:20;179.32;;;165.95;;
63120;SDS011;54478;48.684;20.114;2024-01-30T07:12:48;178.95;;;165.00;;
63120;SDS011;54478;48.684;20.114;2024-01-30T07:15:17;188.80;;;175.23;;
63120;SDS011;54478;48.684;20.114;2024-01-30T07:17:47;192.35;;;178.55;;
63120;SDS011;54478;48.684;20.114;2024-01-30T07:20:15;189.93;;;176.65;;
63120;SDS011;54478;48.684;20.114;2024-01-30T07:22:41;201.18;;;185.25;;
63120;SDS011;54478;48.684;20.114;2024-01-30T07:25:09;200.43;;;184.73;;
63120;SDS011;54478;48.684;20.114;2024-01-30T07:27:34;196.20;;;182.00;;
63120;SDS011;54478;48.684;20.114;2024-01-30T07:30:03;196.65;;;182.68;;
63120;SDS011;54478;48.684;20.114;2024-01-30T07:32:31;203.90;;;188.05;;
63120;SDS011;54478;48.684;20.114;2024-01-30T07:35:00;201.23;;;185.90;;
63120;SDS011;54478;48.684;20.114;2024-01-30T07:37:28;205.95;;;191.32;;
63120;SDS011;54478;48.684;20.114;2024-01-30T07:39:56;206.10;;;191.70;;
63120;SDS011;54478;48.684;20.114;2024-01-30T07:42:24;209.57;;;194.48;;
63120;SDS011;54478;48.684;20.114;2024-01-30T07:44:53;214.50;;;197.52;;
63120;SDS011;54478;48.684;20.114;2024-01-30T07:47:21;216.25;;;201.23;;
63120;SDS011;54478;48.684;20.114;2024-01-30T07:49:49;217.10;;;200.80;;
63120;SDS011;54478;48.684;20.114;2024-01-30T07:52:17;216.82;;;201.48;;
63120;SDS011;54478;48.684;20.114;2024-01-30T07:54:46;214.77;;;199.65;;
63120;SDS011;54478;48.684;20.114;2024-01-30T07:57:14;215.52;;;200.13;;
63120;SDS011;54478;48.684;20.114;2024-01-30T07:59:42;226.75;;;209.15;;
63120;SDS011;54478;48.684;20.114;2024-01-30T08:02:12;216.07;;;199.95;;
63120;SDS011;54478;48.684;20.114;2024-01-30T08:04:40;219.70;;;203.25;;
63120;SDS011;54478;48.684;20.114;2024-01-30T08:07:08;231.98;;;213.38;;
63120;SDS011;54478;48.684;20.114;2024-01-30T08:09:36;228.18;;;210.25;;
63120;SDS011;54478;48.684;20.114;2024-01-30T08:12:04;224.45;;;206.98;;
63120;SDS011;54478;48.684;20.114;2024-01-30T08:14:32;224.73;;;206.25;;
63120;SDS011;54478;48.684;20.114;2024-01-30T08:17:00;229.80;;;211.43;;
63120;SDS011;54478;48.684;20.114;2024-01-30T08:19:28;220.00;;;202.15;;
63120;SDS011;54478;48.684;20.114;2024-01-30T08:21:56;217.60;;;201.23;;
63120;SDS011;54478;48.684;20.114;2024-01-30T08:24:24;230.90;;;211.98;;
63120;SDS011;54478;48.684;20.114;2024-01-30T08:26:50;231.65;;;212.32;;
63120;SDS011;54478;48.684;20.114;2024-01-30T08:29:18;228.23;;;208.80;;
63120;SDS011;54478;48.684;20.114;2024-01-30T08:33:04;27.23;;;10.77;;
63120;SDS011;54478;48.684;20.114;2024-01-30T08:35:32;27.50;;;12.25;;
63120;SDS011;54478;48.684;20.114;2024-01-30T08:38:01;23.15;;;11.82;;
63120;SDS011;54478;48.684;20.114;2024-01-30T08:40:31;14.95;;;9.27;;
63120;SDS011;54478;48.684;20.114;2024-01-30T08:42:59;22.02;;;9.63;;
63120;SDS011;54478;48.684;20.114;2024-01-30T08:45:27;16.70;;;7.07;;
63120;SDS011;54478;48.684;20.114;2024-01-30T08:47:55;19.23;;;8.32;;
63120;SDS011;54478;48.684;20.114;2024-01-30T08:50:23;18.83;;;8.65;;
63120;SDS011;54478;48.684;20.114;2024-01-30T08:52:51;20.95;;;9.18;;
63120;SDS011;54478;48.684;20.114;2024-01-30T08:55:19;19.75;;;8.25;;
63120;SDS011;54478;48.684;20.114;2024-01-30T08:57:47;25.75;;;12.23;;
63120;SDS011;54478;48.684;20.114;2024-01-30T09:00:16;30.35;;;14.75;;
63120;SDS011;54478;48.684;20.114;2024-01-30T09:02:44;36.60;;;16.85;;
63120;SDS011;54478;48.684;20.114;2024-01-30T09:05:12;26.77;;;14.32;;
63120;SDS011;54478;48.684;20.114;2024-01-30T09:07:40;27.95;;;13.10;;
63120;SDS011;54478;48.684;20.114;2024-01-30T09:10:08;28.70;;;15.50;;
63120;SDS011;54478;48.684;20.114;2024-01-30T09:12:37;23.80;;;12.13;;
63120;SDS011;54478;48.684;20.114;2024-01-30T09:15:06;17.85;;;9.02;;
63120;SDS011;54478;48.684;20.114;2024-01-30T09:17:34;18.77;;;8.43;;
63120;SDS011;54478;48.684;20.114;2024-01-30T09:20:02;13.70;;;5.93;;
63120;SDS011;54478;48.684;20.114;2024-01-30T09:22:31;19.17;;;9.82;;
63120;SDS011;54478;48.684;20.114;2024-01-30T09:24:59;24.35;;;10.15;;
63120;SDS011;54478;48.684;20.114;2024-01-30T09:27:27;14.43;;;9.23;;
63120;SDS011;54478;48.684;20.114;2024-01-30T09:29:55;19.70;;;9.75;;
63120;SDS011;54478;48.684;20.114;2024-01-30T09:32:20;13.25;;;7.45;;
63120;SDS011;54478;48.684;20.114;2024-01-30T09:34:48;14.48;;;5.85;;
63120;SDS011;54478;48.684;20.114;2024-01-30T09:37:16;18.77;;;8.57;;
63120;SDS011;54478;48.684;20.114;2024-01-30T09:39:45;18.35;;;10.25;;
63120;SDS011;54478;48.684;20.114;2024-01-30T09:44:48;17.52;;;8.88;;
63120;SDS011;54478;48.684;20.114;2024-01-30T09:47:18;14.20;;;8.35;;
63120;SDS011;54478;48.684;20.114;2024-01-30T09:49:46;11.32;;;6.22;;
63120;SDS011;54478;48.684;20.114;2024-01-30T09:52:14;15.13;;;7.95;;
63120;SDS011;54478;48.684;20.114;2024-01-30T09:54:43;17.05;;;6.53;;
63120;SDS011;54478;48.684;20.114;2024-01-30T09:57:11;13.57;;;6.90;;
63120;SDS011;54478;48.684;20.114;2024-01-30T09:59:37;11.18;;;6.55;;
63120;SDS011;54478;48.684;20.114;2024-01-30T10:02:05;8.63;;;5.75;;
63120;SDS011;54478;48.684;20.114;2024-01-30T10:04:35;13.15;;;6.45;;
63120;SDS011;54478;48.684;20.114;2024-01-30T10:07:02;12.70;;;6.68;;
63120;SDS011;54478;48.684;20.114;2024-01-30T10:09:27;13.57;;;6.32;;
63120;SDS011;54478;48.684;20.114;2024-01-30T10:11:55;15.30;;;6.07;;
63120;SDS011;54478;48.684;20.114;2024-01-30T10:14:23;19.88;;;9.93;;
63120;SDS011;54478;48.684;20.114;2024-01-30T10:16:52;22.95;;;12.88;;
63120;SDS011;54478;48.684;20.114;2024-01-30T10:19:20;10.65;;;5.50;;
63120;SDS011;54478;48.684;20.114;2024-01-30T10:21:49;25.70;;;8.50;;
63120;SDS011;54478;48.684;20.114;2024-01-30T10:24:17;22.88;;;8.68;;
63120;SDS011;54478;48.684;20.114;2024-01-30T10:26:45;16.83;;;7.07;;
63120;SDS011;54478;48.684;20.114;2024-01-30T10:29:13;14.13;;;7.93;;
63120;SDS011;54478;48.684;20.114;2024-01-30T10:31:39;17.60;;;7.50;;
63120;SDS011;54478;48.684;20.114;2024-01-30T10:34:07;11.77;;;6.40;;
63120;SDS011;54478;48.684;20.114;2024-01-30T10:36:39;20.17;;;7.68;;
63120;SDS011;54478;48.684;20.114;2024-01-30T10:39:08;15.05;;;6.25;;
63120;SDS011;54478;48.684;20.114;2024-01-30T10:41:40;15.18;;;6.95;;
63120;SDS011;54478;48.684;20.114;2024-01-30T10:44:10;13.70;;;7.25;;
63120;SDS011;54478;48.684;20.114;2024-01-30T10:46:37;12.27;;;7.03;;
63120;SDS011;54478;48.684;20.114;2024-01-30T10:49:05;20.05;;;7.07;;
63120;SDS011;54478;48.684;20.114;2024-01-30T10:51:34;13.27;;;7.22;;
63120;SDS011;54478;48.684;20.114;2024-01-30T10:54:05;20.52;;;8.52;;
63120;SDS011;54478;48.684;20.114;2024-01-30T10:56:34;23.42;;;10.25;;
63120;SDS011;54478;48.684;20.114;2024-01-30T10:59:03;21.92;;;10.75;;
63120;SDS011;54478;48.684;20.114;2024-01-30T11:01:31;19.25;;;8.93;;
63120;SDS011;54478;48.684;20.114;2024-01-30T11:03:59;18.58;;;10.38;;
63120;SDS011;54478;48.684;20.114;2024-01-30T11:06:27;15.85;;;9.43;;
63120;SDS011;54478;48.684;20.114;2024-01-30T11:09:02;21.15;;;10.10;;
63120;SDS011;54478;48.684;20.114;2024-01-30T11:14:24;53.65;;;48.13;;
63120;SDS011;54478;48.684;20.114;2024-01-30T11:16:56;105.57;;;92.13;;
63120;SDS011;54478;48.684;20.114;2024-01-30T11:19:25;137.55;;;111.22;;
63120;SDS011;54478;48.684;20.114;2024-01-30T11:21:56;108.60;;;90.45;;
63120;SDS011;54478;48.684;20.114;2024-01-30T11:24:27;21.33;;;9.27;;
63120;SDS011;54478;48.684;20.114;2024-01-30T11:26:55;24.63;;;11.65;;
63120;SDS011;54478;48.684;20.114;2024-01-30T11:29:25;23.15;;;10.00;;
63120;SDS011;54478;48.684;20.114;2024-01-30T11:31:57;20.95;;;9.75;;
63120;SDS011;54478;48.684;20.114;2024-01-30T11:34:26;62.50;;;54.53;;
63120;SDS011;54478;48.684;20.114;2024-01-30T11:36:53;112.63;;;95.25;;
63120;SDS011;54478;48.684;20.114;2024-01-30T11:39:26;113.88;;;98.47;;
63120;SDS011;54478;48.684;20.114;2024-01-30T11:41:54;62.67;;;48.03;;
63120;SDS011;54478;48.684;20.114;2024-01-30T11:44:23;37.25;;;33.08;;
63120;SDS011;54478;48.684;20.114;2024-01-30T11:46:51;35.83;;;24.05;;
63120;SDS011;54478;48.684;20.114;2024-01-30T11:49:20;34.58;;;27.48;;
63120;SDS011;54478;48.684;20.114;2024-01-30T11:51:48;123.20;;;87.68;;
63120;SDS011;54478;48.684;20.114;2024-01-30T11:54:17;170.00;;;133.80;;
63120;SDS011;54478;48.684;20.114;2024-01-30T11:56:45;19.65;;;9.07;;
63120;SDS011;54478;48.684;20.114;2024-01-30T11:59:13;13.82;;;7.72;;
63120;SDS011;54478;48.684;20.114;2024-01-30T12:01:42;22.60;;;9.27;;
63120;SDS011;54478;48.684;20.114;2024-01-30T12:04:10;17.35;;;9.18;;
63120;SDS011;54478;48.684;20.114;2024-01-30T12:06:38;19.00;;;9.18;;
63120;SDS011;54478;48.684;20.114;2024-01-30T12:09:06;17.13;;;6.82;;
63120;SDS011;54478;48.684;20.114;2024-01-30T12:11:43;17.48;;;8.55;;
63120;SDS011;54478;48.684;20.114;2024-01-30T12:14:12;20.10;;;9.38;;
63120;SDS011;54478;48.684;20.114;2024-01-30T12:16:40;15.05;;;7.13;;
63120;SDS011;54478;48.684;20.114;2024-01-30T12:19:09;21.13;;;8.68;;
63120;SDS011;54478;48.684;20.114;2024-01-30T12:21:38;17.58;;;8.77;;
63120;SDS011;54478;48.684;20.114;2024-01-30T12:24:06;18.60;;;9.27;;
63120;SDS011;54478;48.684;20.114;2024-01-30T12:26:35;18.60;;;9.27;;
63120;SDS011;54478;48.684;20.114;2024-01-30T12:29:03;22.85;;;8.88;;
63120;SDS011;54478;48.684;20.114;2024-01-30T12:31:31;17.48;;;8.35;;
63120;SDS011;54478;48.684;20.114;2024-01-30T12:34:00;24.70;;;7.93;;
63120;SDS011;54478;48.684;20.114;2024-01-30T12:36:28;84.18;;;65.05;;
63120;SDS011;54478;48.684;20.114;2024-01-30T12:38:56;42.58;;;29.15;;
63120;SDS011;54478;48.684;20.114;2024-01-30T12:41:25;26.48;;;13.38;;
63120;SDS011;54478;48.684;20.114;2024-01-30T12:43:57;26.25;;;12.00;;
63120;SDS011;54478;48.684;20.114;2024-01-30T12:46:27;65.15;;;52.95;;
63120;SDS011;54478;48.684;20.114;2024-01-30T12:48:55;25.38;;;11.32;;
63120;SDS011;54478;48.684;20.114;2024-01-30T12:51:23;24.65;;;10.45;;
63120;SDS011;54478;48.684;20.114;2024-01-30T12:53:52;22.90;;;9.98;;
63120;SDS011;54478;48.684;20.114;2024-01-30T12:56:20;26.02;;;11.10;;
63120;SDS011;54478;48.684;20.114;2024-01-30T12:58:48;23.42;;;10.27;;
63120;SDS011;54478;48.684;20.114;2024-01-30T13:01:17;35.53;;;23.70;;
63120;SDS011;54478;48.684;20.114;2024-01-30T13:03:45;34.03;;;17.65;;
63120;SDS011;54478;48.684;20.114;2024-01-30T13:06:13;23.35;;;9.95;;
63120;SDS011;54478;48.684;20.114;2024-01-30T13:08:41;38.20;;;22.77;;
63120;SDS011;54478;48.684;20.114;2024-01-30T13:11:09;69.13;;;47.63;;
63120;SDS011;54478;48.684;20.114;2024-01-30T13:13:37;41.47;;;20.00;;
63120;SDS011;54478;48.684;20.114;2024-01-30T13:16:05;41.53;;;36.95;;
63120;SDS011;54478;48.684;20.114;2024-01-30T13:18:34;116.07;;;65.63;;
63120;SDS011;54478;48.684;20.114;2024-01-30T13:21:02;19.15;;;10.73;;
63120;SDS011;54478;48.684;20.114;2024-01-30T13:23:31;18.58;;;8.93;;
63120;SDS011;54478;48.684;20.114;2024-01-30T13:25:58;18.17;;;10.02;;
63120;SDS011;54478;48.684;20.114;2024-01-30T13:28:24;19.38;;;10.25;;
63120;SDS011;54478;48.684;20.114;2024-01-30T13:30:50;18.48;;;9.40;;
63120;SDS011;54478;48.684;20.114;2024-01-30T13:33:18;28.98;;;11.90;;
63120;SDS011;54478;48.684;20.114;2024-01-30T13:35:46;62.67;;;40.88;;
63120;SDS011;54478;48.684;20.114;2024-01-30T13:38:15;46.88;;;34.75;;
63120;SDS011;54478;48.684;20.114;2024-01-30T13:40:43;153.45;;;104.20;;
63120;SDS011;54478;48.684;20.114;2024-01-30T13:43:11;160.02;;;108.18;;
63120;SDS011;54478;48.684;20.114;2024-01-30T13:45:40;135.98;;;95.43;;
63120;SDS011;54478;48.684;20.114;2024-01-30T13:48:10;169.90;;;111.80;;
63120;SDS011;54478;48.684;20.114;2024-01-30T13:50:38;62.22;;;41.25;;
63120;SDS011;54478;48.684;20.114;2024-01-30T13:53:06;28.73;;;19.45;;
63120;SDS011;54478;48.684;20.114;2024-01-30T13:55:36;75.47;;;60.35;;
63120;SDS011;54478;48.684;20.114;2024-01-30T13:58:04;108.43;;;80.05;;
63120;SDS011;54478;48.684;20.114;2024-01-30T14:00:32;29.65;;;10.15;;
63120;SDS011;54478;48.684;20.114;2024-01-30T14:03:01;42.58;;;28.88;;
63120;SDS011;54478;48.684;20.114;2024-01-30T14:05:29;70.25;;;52.08;;
63120;SDS011;54478;48.684;20.114;2024-01-30T14:07:58;32.97;;;18.52;;
63120;SDS011;54478;48.684;20.114;2024-01-30T14:10:27;21.58;;;11.65;;
63120;SDS011;54478;48.684;20.114;2024-01-30T14:12:55;16.73;;;9.80;;
63120;SDS011;54478;48.684;20.114;2024-01-30T14:15:24;23.48;;;11.43;;
63120;SDS011;54478;48.684;20.114;2024-01-30T14:17:52;23.92;;;11.43;;
63120;SDS011;54478;48.684;20.114;2024-01-30T14:20:20;22.98;;;10.77;;